首页
METAR-TAF:

METAR-TAF

机场 :

奧爾托國際機場

拉巴斯, 玻利维亚

纬度: 16-31S, 经度: 068-11W, 海拔: 4058米

当前天气观测

该预报发布于31分钟前的22:00 UTC
风速7节,风向西转西北
温度 12°C
湿度 30%
气压 1038 hPa
能见度10公里或以上
少量云层高于1700英尺

METAR: SLLP 252200Z 29007KT 9999 FEW017 12/M05 Q1038

时间: 18:31 (22:31 UTC)

预报

该预报发布于6小时和31分钟前的16:00 UTC
预报有效从25日的 18点(UTC)到 26日的 18点(UTC)
风速12节,风向西
能见度10公里或以上
少量云层高于1700英尺
成为
从 25日的 23点(UTC)到 26日的 01点(UTC)
风速6节,风向东转东北
成为
从 26日的 12点(UTC)到 26日的 14点(UTC)
风速10节,风向西

TAF: SLLP 251600Z 2518/2618 27012KT 9999 FEW017 TX15/2519Z TNM01/2611Z BECMG 2523/2601 07006KT BECMG 2612/2614 27010KT

超过4000个机场的气象观测和天气预报(METAR&TAF报告)。

可查询的气象台以黄色和红色小点在地图上表示。

将鼠标移到小点上方,可查看气象台名称。

然后点击查看天气观测和预报。

如需切换地图:点击带黑十字的绿色按钮放大地图;点击带横线的绿色按钮缩小地图;或者点击绿色箭头查看邻近地区的地图。


METAR-TAF: